Impacts METAR Board
IDs:

KECP - Panama City/NW Flori, FL, US

Updated at: 0000 UTC 05 Jul 2022
Potential Impact None Slight Moderate High
Time 04/12Z 04/13Z 04/14Z 04/15Z 04/16Z 04/17Z 04/18Z 04/19Z 04/20Z 04/21Z 04/22Z 04/23Z 05/00Z
Temp74 76 78 82 85 85 86 87 88 85 84 85 84
Dewpt73 74 76 78 76 76 76 74 75 76 76 76 76
Altim30.10 30.12 30.14 30.14 30.13 30.12 30.11 30.09 30.08 30.06 30.05 30.06 30.07
VIS9 10 10 10 10 10 10 10 10 10 10 10 10
CIG-- -- -- 5 15 20 30 -- 45 33 -- -- --
CoverCLRCLRCLRBKNOVCBKNBKNSCTBKNBKNSCTSCTFEW
FltCatVFRVFRVFRIFRMVFRMVFRMVFRVFRVFRVFRVFRVFRVFR
WX----------------VCTS--------
WDir030001301702200180280300270270
WSpd0 4 0 0 5 5 9 5 7 10 6 6 3
WGst-- -- -- -- -- -- -- -- -- -- -- -- --
R16/34
XWnd VRB 3 VRB VRB 2 -1 -8 VRB -3 -9 -4 -6 -3
Raw hourly METARs
KECP 041153Z 00000KT 9SM CLR 23/23 A3010 RMK AO1 SLP204 7//// T02330228 10239 20228 53008
KECP 041253Z 03004KT 10SM CLR 24/23 A3012 RMK AO1 LTG DSNT SW SLP209 T02440233
KECP 041353Z 00000KT 10SM CLR 26/24 A3014 RMK AO1 SLP215 T02560244
KECP 041453Z 00000KT 10SM BKN005 28/26 A3014 RMK AO1 SLP216 T02780256 51012
KECP 041553Z 13005KT 10SM BKN015 BKN024 OVC037 29/24 A3013 RMK AO1 SLP214 T02940244
KECP 041653Z 17005KT 10SM BKN020 29/24 A3012 RMK AO1 RAB01E12 SLP211 P0000 T02940244
KECP 041753Z 22009KT 10SM SCT020 BKN030 30/24 A3011 RMK AO1 SLP206 60000 T03000244 10306 20233 58010
KECP 041853Z VRB05KT 10SM SCT025 31/23 A3009 RMK AO1 SLP198 T03060233
KECP 041953Z 18007KT 10SM VCTS SCT035 BKN045 31/24 A3008 RMK AO1 SLP196 T03110239
KECP 042053Z 28010KT 10SM BKN033 BKN042 29/24 A3006 RMK AO1 SLP189 T02940244 58009
KECP 042153Z 30006KT 10SM SCT035 29/24 A3005 RMK AO1 SLP187 T02890244
KECP 042253Z 27006KT 10SM SCT030 29/24 A3006 RMK AO1 SLP188 T02940244
KECP 042353Z 27003KT 10SM FEW030 29/24 A3007 RMK AO1 SLP192 T02890244 10311 20283 53002



Page loaded:  00:42 UTC  |   05:42 PM Pacific  |   06:42 PM Mountain  |   07:42 PM Central  |   08:42 PM Eastern

 

ADVISORIES

FORECASTS

FORECASTS

OBSERVATIONS

USER TOOLS

ABOUT US